sensor_id;sensor_type;location;lat;lon;timestamp;P1;durP1;ratioP1;P2;durP2;ratioP2
5277;SDS011;2662;51.194;6.614;2022-09-21T00:00:57;6.30;;;4.77;;
5277;SDS011;2662;51.194;6.614;2022-09-21T00:03:29;6.60;;;4.13;;
5277;SDS011;2662;51.194;6.614;2022-09-21T00:06:01;8.13;;;4.70;;
5277;SDS011;2662;51.194;6.614;2022-09-21T00:08:28;7.60;;;4.40;;
5277;SDS011;2662;51.194;6.614;2022-09-21T00:10:55;6.40;;;4.80;;
5277;SDS011;2662;51.194;6.614;2022-09-21T00:13:23;16.17;;;5.60;;
5277;SDS011;2662;51.194;6.614;2022-09-21T00:15:50;5.83;;;4.13;;
5277;SDS011;2662;51.194;6.614;2022-09-21T00:18:17;8.13;;;3.90;;
5277;SDS011;2662;51.194;6.614;2022-09-21T00:20:43;5.60;;;4.20;;
5277;SDS011;2662;51.194;6.614;2022-09-21T00:23:11;7.77;;;4.40;;
5277;SDS011;2662;51.194;6.614;2022-09-21T00:25:38;14.83;;;4.20;;
5277;SDS011;2662;51.194;6.614;2022-09-21T00:28:05;17.53;;;4.17;;
5277;SDS011;2662;51.194;6.614;2022-09-21T00:30:32;9.33;;;4.40;;
5277;SDS011;2662;51.194;6.614;2022-09-21T00:32:58;10.30;;;4.33;;
5277;SDS011;2662;51.194;6.614;2022-09-21T00:35:25;6.80;;;3.73;;
5277;SDS011;2662;51.194;6.614;2022-09-21T00:37:52;7.77;;;3.60;;
5277;SDS011;2662;51.194;6.614;2022-09-21T00:40:20;7.47;;;4.40;;
5277;SDS011;2662;51.194;6.614;2022-09-21T00:42:46;7.30;;;4.20;;
5277;SDS011;2662;51.194;6.614;2022-09-21T00:45:13;6.90;;;3.80;;
5277;SDS011;2662;51.194;6.614;2022-09-21T00:47:45;8.57;;;4.47;;
5277;SDS011;2662;51.194;6.614;2022-09-21T00:50:17;12.30;;;4.47;;
5277;SDS011;2662;51.194;6.614;2022-09-21T00:52:48;7.90;;;4.10;;
5277;SDS011;2662;51.194;6.614;2022-09-21T00:55:17;6.87;;;3.80;;
5277;SDS011;2662;51.194;6.614;2022-09-21T00:57:50;13.20;;;4.30;;
5277;SDS011;2662;51.194;6.614;2022-09-21T01:00:20;7.13;;;4.30;;
5277;SDS011;2662;51.194;6.614;2022-09-21T01:02:48;8.60;;;3.73;;
5277;SDS011;2662;51.194;6.614;2022-09-21T01:05:15;8.20;;;4.90;;
5277;SDS011;2662;51.194;6.614;2022-09-21T01:07:42;13.33;;;4.97;;
5277;SDS011;2662;51.194;6.614;2022-09-21T01:10:12;10.60;;;4.80;;
5277;SDS011;2662;51.194;6.614;2022-09-21T01:12:48;9.80;;;4.60;;
5277;SDS011;2662;51.194;6.614;2022-09-21T01:15:25;5.30;;;4.50;;
5277;SDS011;2662;51.194;6.614;2022-09-21T01:18:00;6.50;;;4.73;;
5277;SDS011;2662;51.194;6.614;2022-09-21T01:20:39;9.63;;;4.80;;
5277;SDS011;2662;51.194;6.614;2022-09-21T01:23:24;14.80;;;5.13;;
5277;SDS011;2662;51.194;6.614;2022-09-21T01:26:02;10.47;;;4.90;;
5277;SDS011;2662;51.194;6.614;2022-09-21T01:29:05;6.57;;;4.57;;
5277;SDS011;2662;51.194;6.614;2022-09-21T01:31:41;10.00;;;4.77;;
5277;SDS011;2662;51.194;6.614;2022-09-21T01:34:15;18.30;;;5.27;;
5277;SDS011;2662;51.194;6.614;2022-09-21T01:36:47;9.60;;;4.50;;
5277;SDS011;2662;51.194;6.614;2022-09-21T01:39:15;6.17;;;4.20;;
5277;SDS011;2662;51.194;6.614;2022-09-21T01:41:44;9.70;;;4.80;;
5277;SDS011;2662;51.194;6.614;2022-09-21T01:44:17;8.50;;;4.80;;
5277;SDS011;2662;51.194;6.614;2022-09-21T01:46:46;7.57;;;4.43;;
5277;SDS011;2662;51.194;6.614;2022-09-21T01:49:14;7.63;;;4.47;;
5277;SDS011;2662;51.194;6.614;2022-09-21T01:51:45;16.50;;;4.90;;
5277;SDS011;2662;51.194;6.614;2022-09-21T01:54:19;6.70;;;4.57;;
5277;SDS011;2662;51.194;6.614;2022-09-21T01:56:51;5.57;;;4.30;;
5277;SDS011;2662;51.194;6.614;2022-09-21T01:59:25;8.30;;;4.43;;
5277;SDS011;2662;51.194;6.614;2022-09-21T02:02:02;7.00;;;4.13;;
5277;SDS011;2662;51.194;6.614;2022-09-21T02:04:34;7.83;;;4.50;;
5277;SDS011;2662;51.194;6.614;2022-09-21T02:07:03;6.17;;;3.97;;
5277;SDS011;2662;51.194;6.614;2022-09-21T02:09:29;11.37;;;4.17;;
5277;SDS011;2662;51.194;6.614;2022-09-21T02:11:57;10.13;;;3.90;;
5277;SDS011;2662;51.194;6.614;2022-09-21T02:14:26;8.87;;;4.40;;
5277;SDS011;2662;51.194;6.614;2022-09-21T02:16:59;9.20;;;4.00;;
5277;SDS011;2662;51.194;6.614;2022-09-21T02:19:35;8.17;;;4.30;;
5277;SDS011;2662;51.194;6.614;2022-09-21T02:22:10;7.23;;;4.17;;
5277;SDS011;2662;51.194;6.614;2022-09-21T02:24:41;5.03;;;4.30;;
5277;SDS011;2662;51.194;6.614;2022-09-21T02:27:13;6.27;;;4.03;;
5277;SDS011;2662;51.194;6.614;2022-09-21T02:29:50;7.43;;;4.77;;
5277;SDS011;2662;51.194;6.614;2022-09-21T02:32:22;8.57;;;4.60;;
5277;SDS011;2662;51.194;6.614;2022-09-21T02:34:58;8.17;;;3.90;;
5277;SDS011;2662;51.194;6.614;2022-09-21T02:37:31;9.50;;;5.20;;
5277;SDS011;2662;51.194;6.614;2022-09-21T02:40:03;9.43;;;5.20;;
5277;SDS011;2662;51.194;6.614;2022-09-21T02:42:37;5.00;;;4.43;;
5277;SDS011;2662;51.194;6.614;2022-09-21T02:45:10;8.00;;;4.53;;
5277;SDS011;2662;51.194;6.614;2022-09-21T02:47:41;8.23;;;4.53;;
5277;SDS011;2662;51.194;6.614;2022-09-21T02:50:14;14.70;;;4.67;;
5277;SDS011;2662;51.194;6.614;2022-09-21T02:52:45;12.43;;;4.53;;
5277;SDS011;2662;51.194;6.614;2022-09-21T02:55:12;13.70;;;4.27;;
5277;SDS011;2662;51.194;6.614;2022-09-21T02:57:41;10.53;;;4.30;;
5277;SDS011;2662;51.194;6.614;2022-09-21T03:00:10;9.00;;;4.47;;
5277;SDS011;2662;51.194;6.614;2022-09-21T03:02:38;9.40;;;4.83;;
5277;SDS011;2662;51.194;6.614;2022-09-21T03:05:06;7.37;;;5.00;;
5277;SDS011;2662;51.194;6.614;2022-09-21T03:07:35;7.23;;;4.73;;
5277;SDS011;2662;51.194;6.614;2022-09-21T03:10:02;5.70;;;4.30;;
5277;SDS011;2662;51.194;6.614;2022-09-21T03:12:30;11.53;;;5.13;;
5277;SDS011;2662;51.194;6.614;2022-09-21T03:14:57;8.53;;;4.30;;
5277;SDS011;2662;51.194;6.614;2022-09-21T03:17:25;14.90;;;5.20;;
5277;SDS011;2662;51.194;6.614;2022-09-21T03:19:52;13.53;;;5.43;;
5277;SDS011;2662;51.194;6.614;2022-09-21T03:22:19;9.47;;;4.70;;
5277;SDS011;2662;51.194;6.614;2022-09-21T03:24:46;7.37;;;4.33;;
5277;SDS011;2662;51.194;6.614;2022-09-21T03:27:13;20.10;;;4.93;;
5277;SDS011;2662;51.194;6.614;2022-09-21T03:29:41;13.43;;;4.50;;
5277;SDS011;2662;51.194;6.614;2022-09-21T03:32:08;10.53;;;5.07;;
5277;SDS011;2662;51.194;6.614;2022-09-21T03:34:37;17.93;;;4.97;;
5277;SDS011;2662;51.194;6.614;2022-09-21T03:37:04;11.53;;;4.80;;
5277;SDS011;2662;51.194;6.614;2022-09-21T03:39:31;7.27;;;5.10;;
5277;SDS011;2662;51.194;6.614;2022-09-21T03:41:59;10.10;;;4.83;;
5277;SDS011;2662;51.194;6.614;2022-09-21T03:44:26;6.87;;;5.00;;
5277;SDS011;2662;51.194;6.614;2022-09-21T03:46:53;11.10;;;5.17;;
5277;SDS011;2662;51.194;6.614;2022-09-21T03:49:20;9.47;;;4.67;;
5277;SDS011;2662;51.194;6.614;2022-09-21T03:51:48;8.37;;;4.43;;
5277;SDS011;2662;51.194;6.614;2022-09-21T03:54:15;30.97;;;4.77;;
5277;SDS011;2662;51.194;6.614;2022-09-21T03:56:42;9.50;;;4.87;;
5277;SDS011;2662;51.194;6.614;2022-09-21T03:59:08;16.03;;;5.00;;
5277;SDS011;2662;51.194;6.614;2022-09-21T04:01:35;15.07;;;5.73;;
5277;SDS011;2662;51.194;6.614;2022-09-21T04:04:02;9.73;;;4.57;;
5277;SDS011;2662;51.194;6.614;2022-09-21T04:06:29;11.90;;;4.87;;
5277;SDS011;2662;51.194;6.614;2022-09-21T04:08:57;19.93;;;4.80;;
5277;SDS011;2662;51.194;6.614;2022-09-21T04:11:24;7.53;;;4.57;;
5277;SDS011;2662;51.194;6.614;2022-09-21T04:13:51;9.80;;;5.10;;
5277;SDS011;2662;51.194;6.614;2022-09-21T04:16:21;10.73;;;4.30;;
5277;SDS011;2662;51.194;6.614;2022-09-21T04:18:49;6.17;;;4.47;;
5277;SDS011;2662;51.194;6.614;2022-09-21T04:21:16;9.07;;;4.60;;
5277;SDS011;2662;51.194;6.614;2022-09-21T04:23:43;11.00;;;5.50;;
5277;SDS011;2662;51.194;6.614;2022-09-21T04:26:21;12.77;;;4.90;;
5277;SDS011;2662;51.194;6.614;2022-09-21T04:28:49;11.73;;;4.90;;
5277;SDS011;2662;51.194;6.614;2022-09-21T04:31:16;11.43;;;4.70;;
5277;SDS011;2662;51.194;6.614;2022-09-21T04:33:43;10.20;;;4.60;;
5277;SDS011;2662;51.194;6.614;2022-09-21T04:36:12;8.53;;;4.97;;
5277;SDS011;2662;51.194;6.614;2022-09-21T04:38:39;11.60;;;4.67;;
5277;SDS011;2662;51.194;6.614;2022-09-21T04:41:05;10.43;;;5.20;;
5277;SDS011;2662;51.194;6.614;2022-09-21T04:43:33;11.13;;;4.57;;
5277;SDS011;2662;51.194;6.614;2022-09-21T04:46:03;7.20;;;4.33;;
5277;SDS011;2662;51.194;6.614;2022-09-21T04:48:31;12.73;;;4.40;;
5277;SDS011;2662;51.194;6.614;2022-09-21T04:50:57;12.17;;;4.73;;
5277;SDS011;2662;51.194;6.614;2022-09-21T04:53:24;12.50;;;4.10;;
5277;SDS011;2662;51.194;6.614;2022-09-21T04:55:51;14.00;;;4.83;;
5277;SDS011;2662;51.194;6.614;2022-09-21T04:58:18;8.20;;;3.90;;
5277;SDS011;2662;51.194;6.614;2022-09-21T05:00:48;20.43;;;4.87;;
5277;SDS011;2662;51.194;6.614;2022-09-21T05:03:15;15.80;;;5.37;;
5277;SDS011;2662;51.194;6.614;2022-09-21T05:05:45;7.23;;;4.00;;
5277;SDS011;2662;51.194;6.614;2022-09-21T05:08:12;11.63;;;5.10;;
5277;SDS011;2662;51.194;6.614;2022-09-21T05:10:39;8.17;;;4.50;;
5277;SDS011;2662;51.194;6.614;2022-09-21T05:13:04;23.23;;;4.63;;
5277;SDS011;2662;51.194;6.614;2022-09-21T05:15:31;9.10;;;4.20;;
5277;SDS011;2662;51.194;6.614;2022-09-21T05:17:59;7.90;;;4.30;;
5277;SDS011;2662;51.194;6.614;2022-09-21T05:20:26;13.67;;;4.60;;
5277;SDS011;2662;51.194;6.614;2022-09-21T05:22:52;17.60;;;5.83;;
5277;SDS011;2662;51.194;6.614;2022-09-21T05:25:19;24.63;;;5.40;;
5277;SDS011;2662;51.194;6.614;2022-09-21T05:27:46;15.33;;;4.67;;
5277;SDS011;2662;51.194;6.614;2022-09-21T05:30:13;24.73;;;4.67;;
5277;SDS011;2662;51.194;6.614;2022-09-21T05:32:42;8.23;;;4.53;;
5277;SDS011;2662;51.194;6.614;2022-09-21T05:35:17;11.30;;;4.40;;
5277;SDS011;2662;51.194;6.614;2022-09-21T05:37:52;13.50;;;4.70;;
5277;SDS011;2662;51.194;6.614;2022-09-21T05:40:24;10.03;;;3.80;;
5277;SDS011;2662;51.194;6.614;2022-09-21T05:42:51;9.60;;;4.03;;
5277;SDS011;2662;51.194;6.614;2022-09-21T05:45:18;19.20;;;4.50;;
5277;SDS011;2662;51.194;6.614;2022-09-21T05:47:57;15.63;;;4.10;;
5277;SDS011;2662;51.194;6.614;2022-09-21T05:50:45;10.97;;;4.43;;
5277;SDS011;2662;51.194;6.614;2022-09-21T05:53:19;14.80;;;4.30;;
5277;SDS011;2662;51.194;6.614;2022-09-21T05:55:59;13.43;;;4.93;;
5277;SDS011;2662;51.194;6.614;2022-09-21T05:58:34;14.00;;;4.50;;
5277;SDS011;2662;51.194;6.614;2022-09-21T06:01:10;16.57;;;5.40;;
5277;SDS011;2662;51.194;6.614;2022-09-21T06:03:51;18.90;;;5.70;;
5277;SDS011;2662;51.194;6.614;2022-09-21T06:06:22;19.83;;;6.17;;
5277;SDS011;2662;51.194;6.614;2022-09-21T06:08:48;40.10;;;6.90;;
5277;SDS011;2662;51.194;6.614;2022-09-21T06:11:15;13.30;;;4.90;;
5277;SDS011;2662;51.194;6.614;2022-09-21T06:13:42;14.90;;;4.93;;
5277;SDS011;2662;51.194;6.614;2022-09-21T06:16:08;7.67;;;4.50;;
5277;SDS011;2662;51.194;6.614;2022-09-21T06:18:35;10.03;;;4.47;;
5277;SDS011;2662;51.194;6.614;2022-09-21T06:21:03;4.47;;;3.87;;
5277;SDS011;2662;51.194;6.614;2022-09-21T06:23:32;13.47;;;4.20;;
5277;SDS011;2662;51.194;6.614;2022-09-21T06:25:59;6.20;;;3.70;;
5277;SDS011;2662;51.194;6.614;2022-09-21T06:28:25;3.60;;;3.30;;
5277;SDS011;2662;51.194;6.614;2022-09-21T06:30:54;9.83;;;4.07;;
5277;SDS011;2662;51.194;6.614;2022-09-21T06:33:21;8.10;;;3.80;;
5277;SDS011;2662;51.194;6.614;2022-09-21T06:35:53;5.70;;;3.53;;
5277;SDS011;2662;51.194;6.614;2022-09-21T06:38:21;10.03;;;3.80;;
5277;SDS011;2662;51.194;6.614;2022-09-21T06:40:50;10.10;;;4.50;;
5277;SDS011;2662;51.194;6.614;2022-09-21T06:43:17;5.43;;;4.17;;
5277;SDS011;2662;51.194;6.614;2022-09-21T06:45:51;9.77;;;4.47;;
5277;SDS011;2662;51.194;6.614;2022-09-21T06:48:18;7.90;;;5.30;;
5277;SDS011;2662;51.194;6.614;2022-09-21T06:50:45;8.80;;;5.20;;
5277;SDS011;2662;51.194;6.614;2022-09-21T06:53:12;12.10;;;5.37;;
5277;SDS011;2662;51.194;6.614;2022-09-21T06:55:39;10.63;;;5.30;;
5277;SDS011;2662;51.194;6.614;2022-09-21T06:58:07;11.80;;;5.50;;
5277;SDS011;2662;51.194;6.614;2022-09-21T07:00:34;13.77;;;5.90;;
5277;SDS011;2662;51.194;6.614;2022-09-21T07:03:01;18.40;;;6.40;;
5277;SDS011;2662;51.194;6.614;2022-09-21T07:05:27;20.10;;;6.30;;
5277;SDS011;2662;51.194;6.614;2022-09-21T07:07:55;19.60;;;6.40;;
5277;SDS011;2662;51.194;6.614;2022-09-21T07:10:22;11.13;;;6.40;;
5277;SDS011;2662;51.194;6.614;2022-09-21T07:12:49;14.07;;;7.93;;
5277;SDS011;2662;51.194;6.614;2022-09-21T07:15:18;28.80;;;8.50;;
5277;SDS011;2662;51.194;6.614;2022-09-21T07:17:45;25.83;;;8.60;;
5277;SDS011;2662;51.194;6.614;2022-09-21T07:20:12;16.00;;;7.70;;
5277;SDS011;2662;51.194;6.614;2022-09-21T07:22:39;21.67;;;8.67;;
5277;SDS011;2662;51.194;6.614;2022-09-21T07:25:06;20.37;;;7.77;;
5277;SDS011;2662;51.194;6.614;2022-09-21T07:27:34;20.70;;;7.23;;
5277;SDS011;2662;51.194;6.614;2022-09-21T07:30:01;24.20;;;7.93;;
5277;SDS011;2662;51.194;6.614;2022-09-21T07:32:29;18.63;;;7.70;;
5277;SDS011;2662;51.194;6.614;2022-09-21T07:34:55;22.17;;;8.30;;
5277;SDS011;2662;51.194;6.614;2022-09-21T07:37:22;24.47;;;8.00;;
5277;SDS011;2662;51.194;6.614;2022-09-21T07:39:50;18.53;;;7.90;;
5277;SDS011;2662;51.194;6.614;2022-09-21T07:42:17;19.20;;;8.20;;
5277;SDS011;2662;51.194;6.614;2022-09-21T07:44:45;17.23;;;7.60;;
5277;SDS011;2662;51.194;6.614;2022-09-21T07:47:12;17.70;;;8.40;;
5277;SDS011;2662;51.194;6.614;2022-09-21T07:49:40;14.83;;;8.90;;
5277;SDS011;2662;51.194;6.614;2022-09-21T07:52:07;19.30;;;9.13;;
5277;SDS011;2662;51.194;6.614;2022-09-21T07:54:34;23.10;;;8.90;;
5277;SDS011;2662;51.194;6.614;2022-09-21T07:57:01;24.73;;;8.13;;
5277;SDS011;2662;51.194;6.614;2022-09-21T07:59:46;20.30;;;8.17;;
5277;SDS011;2662;51.194;6.614;2022-09-21T08:02:12;23.57;;;8.50;;
5277;SDS011;2662;51.194;6.614;2022-09-21T08:04:40;27.93;;;10.13;;
5277;SDS011;2662;51.194;6.614;2022-09-21T08:07:07;15.60;;;7.90;;
5277;SDS011;2662;51.194;6.614;2022-09-21T08:09:34;15.03;;;8.80;;
5277;SDS011;2662;51.194;6.614;2022-09-21T08:12:01;15.03;;;8.23;;
5277;SDS011;2662;51.194;6.614;2022-09-21T08:14:27;19.73;;;9.47;;
5277;SDS011;2662;51.194;6.614;2022-09-21T08:16:54;16.00;;;8.20;;
5277;SDS011;2662;51.194;6.614;2022-09-21T08:19:21;16.93;;;8.50;;
5277;SDS011;2662;51.194;6.614;2022-09-21T08:21:51;17.20;;;8.27;;
5277;SDS011;2662;51.194;6.614;2022-09-21T08:24:18;18.30;;;8.43;;
5277;SDS011;2662;51.194;6.614;2022-09-21T08:26:44;12.40;;;8.13;;
5277;SDS011;2662;51.194;6.614;2022-09-21T08:29:12;15.07;;;7.97;;
5277;SDS011;2662;51.194;6.614;2022-09-21T08:31:39;16.97;;;8.40;;
5277;SDS011;2662;51.194;6.614;2022-09-21T08:34:06;18.00;;;8.93;;
5277;SDS011;2662;51.194;6.614;2022-09-21T08:36:33;12.90;;;8.00;;
5277;SDS011;2662;51.194;6.614;2022-09-21T08:39:01;12.30;;;8.00;;
5277;SDS011;2662;51.194;6.614;2022-09-21T08:44:20;14.70;;;7.47;;
5277;SDS011;2662;51.194;6.614;2022-09-21T08:46:52;11.00;;;7.13;;
5277;SDS011;2662;51.194;6.614;2022-09-21T08:49:26;13.50;;;6.70;;
5277;SDS011;2662;51.194;6.614;2022-09-21T08:51:54;16.73;;;7.47;;
5277;SDS011;2662;51.194;6.614;2022-09-21T08:54:26;13.50;;;6.90;;
5277;SDS011;2662;51.194;6.614;2022-09-21T08:56:59;9.47;;;6.80;;
5277;SDS011;2662;51.194;6.614;2022-09-21T08:59:27;13.50;;;6.77;;
5277;SDS011;2662;51.194;6.614;2022-09-21T09:01:55;11.47;;;7.30;;
5277;SDS011;2662;51.194;6.614;2022-09-21T09:04:27;14.20;;;6.23;;
5277;SDS011;2662;51.194;6.614;2022-09-21T09:07:14;10.27;;;6.57;;
5277;SDS011;2662;51.194;6.614;2022-09-21T09:10:09;14.20;;;6.83;;
5277;SDS011;2662;51.194;6.614;2022-09-21T09:12:48;7.87;;;5.17;;
5277;SDS011;2662;51.194;6.614;2022-09-21T09:15:25;13.20;;;5.10;;
5277;SDS011;2662;51.194;6.614;2022-09-21T09:18:03;11.23;;;5.30;;
5277;SDS011;2662;51.194;6.614;2022-09-21T09:20:35;8.00;;;5.30;;
5277;SDS011;2662;51.194;6.614;2022-09-21T09:23:08;10.20;;;5.30;;
5277;SDS011;2662;51.194;6.614;2022-09-21T09:25:40;9.00;;;5.20;;
5277;SDS011;2662;51.194;6.614;2022-09-21T09:28:13;12.53;;;5.07;;
5277;SDS011;2662;51.194;6.614;2022-09-21T09:30:45;9.23;;;5.00;;
5277;SDS011;2662;51.194;6.614;2022-09-21T09:33:20;8.63;;;4.10;;
5277;SDS011;2662;51.194;6.614;2022-09-21T09:35:49;9.03;;;4.87;;
5277;SDS011;2662;51.194;6.614;2022-09-21T09:38:23;8.87;;;4.20;;
5277;SDS011;2662;51.194;6.614;2022-09-21T09:41:03;21.57;;;5.00;;
5277;SDS011;2662;51.194;6.614;2022-09-21T09:43:43;8.67;;;5.03;;
5277;SDS011;2662;51.194;6.614;2022-09-21T09:46:19;11.33;;;5.00;;
5277;SDS011;2662;51.194;6.614;2022-09-21T09:51:43;9.40;;;5.20;;
5277;SDS011;2662;51.194;6.614;2022-09-21T09:54:12;8.63;;;4.83;;
5277;SDS011;2662;51.194;6.614;2022-09-21T09:56:42;10.27;;;4.80;;
5277;SDS011;2662;51.194;6.614;2022-09-21T09:59:10;12.90;;;4.90;;
5277;SDS011;2662;51.194;6.614;2022-09-21T10:01:59;7.70;;;4.57;;
5277;SDS011;2662;51.194;6.614;2022-09-21T10:04:27;11.30;;;5.23;;
5277;SDS011;2662;51.194;6.614;2022-09-21T10:06:54;8.80;;;4.50;;
5277;SDS011;2662;51.194;6.614;2022-09-21T10:09:25;13.17;;;3.50;;
5277;SDS011;2662;51.194;6.614;2022-09-21T10:11:55;5.13;;;3.63;;
5277;SDS011;2662;51.194;6.614;2022-09-21T10:14:26;12.00;;;4.70;;
5277;SDS011;2662;51.194;6.614;2022-09-21T10:16:54;8.83;;;4.50;;
5277;SDS011;2662;51.194;6.614;2022-09-21T10:19:24;10.80;;;4.57;;
5277;SDS011;2662;51.194;6.614;2022-09-21T10:21:54;7.17;;;4.40;;
5277;SDS011;2662;51.194;6.614;2022-09-21T10:24:23;8.37;;;3.77;;
5277;SDS011;2662;51.194;6.614;2022-09-21T10:26:54;11.80;;;4.07;;
5277;SDS011;2662;51.194;6.614;2022-09-21T10:29:28;12.17;;;4.60;;
5277;SDS011;2662;51.194;6.614;2022-09-21T10:32:05;4.97;;;4.10;;
5277;SDS011;2662;51.194;6.614;2022-09-21T10:35:00;10.97;;;3.73;;
5277;SDS011;2662;51.194;6.614;2022-09-21T10:37:39;10.50;;;4.47;;
5277;SDS011;2662;51.194;6.614;2022-09-21T10:40:10;14.53;;;4.20;;
5277;SDS011;2662;51.194;6.614;2022-09-21T10:42:50;9.90;;;4.60;;
5277;SDS011;2662;51.194;6.614;2022-09-21T10:45:19;6.60;;;4.13;;
5277;SDS011;2662;51.194;6.614;2022-09-21T10:47:49;8.23;;;4.37;;
5277;SDS011;2662;51.194;6.614;2022-09-21T10:50:20;9.20;;;4.87;;
5277;SDS011;2662;51.194;6.614;2022-09-21T10:52:49;7.23;;;4.27;;
5277;SDS011;2662;51.194;6.614;2022-09-21T10:55:21;7.40;;;3.90;;
5277;SDS011;2662;51.194;6.614;2022-09-21T10:57:50;7.77;;;3.97;;
5277;SDS011;2662;51.194;6.614;2022-09-21T11:00:25;10.70;;;3.80;;
5277;SDS011;2662;51.194;6.614;2022-09-21T11:03:00;4.80;;;3.20;;
5277;SDS011;2662;51.194;6.614;2022-09-21T11:05:32;10.20;;;3.60;;
5277;SDS011;2662;51.194;6.614;2022-09-21T11:08:02;5.53;;;2.83;;
5277;SDS011;2662;51.194;6.614;2022-09-21T11:10:37;7.97;;;3.13;;
5277;SDS011;2662;51.194;6.614;2022-09-21T11:13:19;11.60;;;3.40;;
5277;SDS011;2662;51.194;6.614;2022-09-21T11:15:53;11.10;;;3.33;;
5277;SDS011;2662;51.194;6.614;2022-09-21T11:18:29;7.60;;;2.70;;
5277;SDS011;2662;51.194;6.614;2022-09-21T11:21:02;7.73;;;3.87;;
5277;SDS011;2662;51.194;6.614;2022-09-21T11:23:40;6.20;;;3.43;;
5277;SDS011;2662;51.194;6.614;2022-09-21T11:26:16;11.10;;;3.83;;
5277;SDS011;2662;51.194;6.614;2022-09-21T11:28:51;9.70;;;3.70;;
5277;SDS011;2662;51.194;6.614;2022-09-21T11:31:28;5.30;;;3.73;;
5277;SDS011;2662;51.194;6.614;2022-09-21T11:34:19;11.80;;;3.10;;
5277;SDS011;2662;51.194;6.614;2022-09-21T11:37:09;10.07;;;3.43;;
5277;SDS011;2662;51.194;6.614;2022-09-21T11:39:49;10.30;;;3.03;;
5277;SDS011;2662;51.194;6.614;2022-09-21T11:45:22;7.70;;;3.40;;
5277;SDS011;2662;51.194;6.614;2022-09-21T11:48:02;6.10;;;2.63;;
5277;SDS011;2662;51.194;6.614;2022-09-21T11:50:39;4.87;;;2.20;;
5277;SDS011;2662;51.194;6.614;2022-09-21T11:53:21;9.93;;;2.60;;
5277;SDS011;2662;51.194;6.614;2022-09-21T11:56:02;7.33;;;2.03;;
5277;SDS011;2662;51.194;6.614;2022-09-21T11:58:43;5.23;;;1.97;;
5277;SDS011;2662;51.194;6.614;2022-09-21T12:01:22;3.40;;;1.63;;
5277;SDS011;2662;51.194;6.614;2022-09-21T12:04:08;7.30;;;2.07;;
5277;SDS011;2662;51.194;6.614;2022-09-21T12:06:52;5.63;;;1.73;;
5277;SDS011;2662;51.194;6.614;2022-09-21T12:09:35;4.33;;;1.43;;
5277;SDS011;2662;51.194;6.614;2022-09-21T12:12:25;3.73;;;1.63;;
5277;SDS011;2662;51.194;6.614;2022-09-21T12:14:59;6.80;;;2.00;;
5277;SDS011;2662;51.194;6.614;2022-09-21T12:17:37;4.63;;;1.53;;
5277;SDS011;2662;51.194;6.614;2022-09-21T12:20:15;7.20;;;1.60;;
5277;SDS011;2662;51.194;6.614;2022-09-21T12:22:48;3.87;;;1.40;;
5277;SDS011;2662;51.194;6.614;2022-09-21T12:25:20;5.43;;;1.53;;
5277;SDS011;2662;51.194;6.614;2022-09-21T12:27:50;6.83;;;1.40;;
5277;SDS011;2662;51.194;6.614;2022-09-21T12:30:22;8.37;;;1.60;;
5277;SDS011;2662;51.194;6.614;2022-09-21T12:32:52;2.23;;;1.63;;
5277;SDS011;2662;51.194;6.614;2022-09-21T12:35:23;11.20;;;2.03;;
5277;SDS011;2662;51.194;6.614;2022-09-21T12:37:56;3.97;;;1.50;;
5277;SDS011;2662;51.194;6.614;2022-09-21T12:40:28;2.83;;;1.43;;
5277;SDS011;2662;51.194;6.614;2022-09-21T12:43:02;5.30;;;1.70;;
5277;SDS011;2662;51.194;6.614;2022-09-21T12:45:39;2.50;;;1.20;;
5277;SDS011;2662;51.194;6.614;2022-09-21T12:48:13;3.03;;;1.50;;
5277;SDS011;2662;51.194;6.614;2022-09-21T12:50:47;2.57;;;1.20;;
5277;SDS011;2662;51.194;6.614;2022-09-21T12:53:19;3.40;;;1.30;;
5277;SDS011;2662;51.194;6.614;2022-09-21T12:55:49;5.00;;;1.27;;
5277;SDS011;2662;51.194;6.614;2022-09-21T12:58:26;2.80;;;1.07;;
5277;SDS011;2662;51.194;6.614;2022-09-21T13:01:12;2.77;;;1.13;;
5277;SDS011;2662;51.194;6.614;2022-09-21T13:03:54;2.03;;;1.07;;
5277;SDS011;2662;51.194;6.614;2022-09-21T13:06:43;4.53;;;1.20;;
5277;SDS011;2662;51.194;6.614;2022-09-21T13:09:31;2.10;;;1.20;;
5277;SDS011;2662;51.194;6.614;2022-09-21T13:11:59;8.30;;;1.70;;
5277;SDS011;2662;51.194;6.614;2022-09-21T13:14:32;17.57;;;1.30;;
5277;SDS011;2662;51.194;6.614;2022-09-21T13:17:03;3.87;;;1.43;;
5277;SDS011;2662;51.194;6.614;2022-09-21T13:19:32;2.97;;;1.80;;
5277;SDS011;2662;51.194;6.614;2022-09-21T13:22:10;3.17;;;1.40;;
5277;SDS011;2662;51.194;6.614;2022-09-21T13:24:43;6.07;;;1.50;;
5277;SDS011;2662;51.194;6.614;2022-09-21T13:27:11;4.43;;;1.67;;
5277;SDS011;2662;51.194;6.614;2022-09-21T13:29:40;6.47;;;1.40;;
5277;SDS011;2662;51.194;6.614;2022-09-21T13:32:20;3.27;;;1.33;;
5277;SDS011;2662;51.194;6.614;2022-09-21T13:34:50;4.90;;;1.50;;
5277;SDS011;2662;51.194;6.614;2022-09-21T13:37:26;8.73;;;1.93;;
5277;SDS011;2662;51.194;6.614;2022-09-21T13:43:17;10.23;;;1.70;;
5277;SDS011;2662;51.194;6.614;2022-09-21T13:45:50;6.10;;;1.83;;
5277;SDS011;2662;51.194;6.614;2022-09-21T13:48:20;2.57;;;1.60;;
5277;SDS011;2662;51.194;6.614;2022-09-21T13:50:56;5.33;;;1.70;;
5277;SDS011;2662;51.194;6.614;2022-09-21T13:53:27;7.53;;;1.90;;
5277;SDS011;2662;51.194;6.614;2022-09-21T13:55:59;3.20;;;1.60;;
5277;SDS011;2662;51.194;6.614;2022-09-21T13:58:33;2.80;;;1.40;;
5277;SDS011;2662;51.194;6.614;2022-09-21T14:01:02;7.70;;;1.30;;
5277;SDS011;2662;51.194;6.614;2022-09-21T14:03:32;2.00;;;1.20;;
5277;SDS011;2662;51.194;6.614;2022-09-21T14:06:04;3.20;;;1.40;;
5277;SDS011;2662;51.194;6.614;2022-09-21T14:08:34;4.77;;;1.13;;
5277;SDS011;2662;51.194;6.614;2022-09-21T14:11:06;3.17;;;0.87;;
5277;SDS011;2662;51.194;6.614;2022-09-21T14:13:35;7.73;;;1.30;;
5277;SDS011;2662;51.194;6.614;2022-09-21T14:22:35;1.20;;;1.10;;
5277;SDS011;2662;51.194;6.614;2022-09-21T14:27:57;5.60;;;1.30;;
5277;SDS011;2662;51.194;6.614;2022-09-21T14:30:28;4.43;;;1.20;;
5277;SDS011;2662;51.194;6.614;2022-09-21T14:33:04;3.77;;;1.50;;
5277;SDS011;2662;51.194;6.614;2022-09-21T14:35:39;4.97;;;1.60;;
5277;SDS011;2662;51.194;6.614;2022-09-21T14:38:13;1.90;;;1.27;;
5277;SDS011;2662;51.194;6.614;2022-09-21T14:40:45;5.33;;;1.30;;
5277;SDS011;2662;51.194;6.614;2022-09-21T14:43:15;4.80;;;1.40;;
5277;SDS011;2662;51.194;6.614;2022-09-21T14:45:50;8.57;;;1.50;;
5277;SDS011;2662;51.194;6.614;2022-09-21T14:48:29;9.77;;;1.03;;
5277;SDS011;2662;51.194;6.614;2022-09-21T14:51:03;5.17;;;1.20;;
5277;SDS011;2662;51.194;6.614;2022-09-21T14:53:44;3.73;;;1.20;;
5277;SDS011;2662;51.194;6.614;2022-09-21T14:56:34;7.73;;;1.50;;
5277;SDS011;2662;51.194;6.614;2022-09-21T14:59:18;5.40;;;1.73;;
5277;SDS011;2662;51.194;6.614;2022-09-21T15:01:59;8.97;;;1.40;;
5277;SDS011;2662;51.194;6.614;2022-09-21T15:04:43;10.00;;;1.30;;
5277;SDS011;2662;51.194;6.614;2022-09-21T15:07:29;4.30;;;1.77;;
5277;SDS011;2662;51.194;6.614;2022-09-21T15:10:24;5.70;;;1.50;;
5277;SDS011;2662;51.194;6.614;2022-09-21T15:16:22;4.77;;;1.40;;
5277;SDS011;2662;51.194;6.614;2022-09-21T15:19:19;6.03;;;1.60;;
5277;SDS011;2662;51.194;6.614;2022-09-21T15:21:48;9.93;;;1.70;;
5277;SDS011;2662;51.194;6.614;2022-09-21T15:24:18;9.20;;;1.33;;
5277;SDS011;2662;51.194;6.614;2022-09-21T15:26:48;4.80;;;1.20;;
5277;SDS011;2662;51.194;6.614;2022-09-21T15:29:19;9.10;;;1.83;;
5277;SDS011;2662;51.194;6.614;2022-09-21T15:31:49;3.50;;;1.57;;
5277;SDS011;2662;51.194;6.614;2022-09-21T15:34:17;2.80;;;1.10;;
5277;SDS011;2662;51.194;6.614;2022-09-21T15:36:44;6.43;;;1.20;;
5277;SDS011;2662;51.194;6.614;2022-09-21T15:42:04;7.73;;;1.40;;
5277;SDS011;2662;51.194;6.614;2022-09-21T15:44:41;5.60;;;1.30;;
5277;SDS011;2662;51.194;6.614;2022-09-21T15:47:12;6.60;;;1.73;;
5277;SDS011;2662;51.194;6.614;2022-09-21T15:49:41;2.40;;;1.30;;
5277;SDS011;2662;51.194;6.614;2022-09-21T15:52:10;5.30;;;1.13;;
5277;SDS011;2662;51.194;6.614;2022-09-21T15:54:39;6.30;;;1.43;;
5277;SDS011;2662;51.194;6.614;2022-09-21T15:57:23;3.93;;;1.70;;
5277;SDS011;2662;51.194;6.614;2022-09-21T15:59:55;5.67;;;1.40;;
5277;SDS011;2662;51.194;6.614;2022-09-21T16:02:22;6.40;;;1.60;;
5277;SDS011;2662;51.194;6.614;2022-09-21T16:04:51;10.23;;;1.87;;